createdAt,value
2023-01-18T00:01:29.471Z,91.75
2023-01-18T00:03:58.323Z,91.77
2023-01-18T00:06:27.883Z,91.79
2023-01-18T00:08:55.863Z,91.82
2023-01-18T00:11:24.104Z,91.83
2023-01-18T00:13:54.226Z,91.82
2023-01-18T00:16:22.812Z,91.82
2023-01-18T00:18:55.645Z,91.82
2023-01-18T00:21:24.773Z,91.81
2023-01-18T00:24:22.980Z,91.76
2023-01-18T00:26:50.866Z,91.72
2023-01-18T00:29:23.645Z,91.72
2023-01-18T00:31:51.651Z,91.73
2023-01-18T00:34:20.639Z,91.72
2023-01-18T00:36:50.676Z,91.73
2023-01-18T00:39:18.796Z,91.77
2023-01-18T00:42:06.325Z,91.81
2023-01-18T00:44:34.224Z,91.86
2023-01-18T00:47:03.113Z,91.91
2023-01-18T00:49:31.131Z,91.96
2023-01-18T00:51:58.982Z,92.02
2023-01-18T00:54:26.920Z,92.07
2023-01-18T00:56:56.750Z,92.10
2023-01-18T00:59:26.596Z,92.15
2023-01-18T01:01:58.569Z,92.17
2023-01-18T01:04:47.388Z,92.15
2023-01-18T01:07:40.705Z,92.03
2023-01-18T01:11:01.313Z,91.92
2023-01-18T01:13:49.075Z,91.85
2023-01-18T01:16:39.395Z,91.83
2023-01-18T01:19:30.949Z,91.84
2023-01-18T01:22:17.644Z,91.86
2023-01-18T01:25:05.253Z,91.92
2023-01-18T01:27:33.203Z,91.98
2023-01-18T01:30:06.428Z,92.01
2023-01-18T01:32:36.303Z,92.05
2023-01-18T01:35:07.896Z,92.12
2023-01-18T01:37:36.075Z,92.18
2023-01-18T01:40:05.865Z,92.22
2023-01-18T01:42:33.769Z,92.27
2023-01-18T01:45:02.636Z,92.29
2023-01-18T01:47:44.562Z,92.25
2023-01-18T01:50:23.480Z,92.23
2023-01-18T01:52:58.677Z,92.19
2023-01-18T01:55:35.622Z,92.19
2023-01-18T01:58:24.169Z,92.26
2023-01-18T02:00:54.340Z,92.33
2023-01-18T02:03:25.308Z,92.38
2023-01-18T02:06:05.713Z,92.44
2023-01-18T02:08:38.643Z,92.49
2023-01-18T02:11:08.450Z,92.53
2023-01-18T02:13:36.404Z,92.57
2023-01-18T02:16:23.830Z,92.62
2023-01-18T02:19:04.668Z,92.60
2023-01-18T02:21:48.643Z,92.44
2023-01-18T02:24:42.987Z,92.48
2023-01-18T02:27:20.949Z,92.53
2023-01-18T02:30:11.352Z,92.58
2023-01-18T02:32:44.528Z,92.61
2023-01-18T02:35:20.364Z,92.65
2023-01-18T02:38:09.992Z,92.68
2023-01-18T02:40:57.080Z,92.71
2023-01-18T02:43:47.696Z,92.68
2023-01-18T02:46:38.896Z,92.71
2023-01-18T02:49:23.922Z,92.73
2023-01-18T02:52:32.388Z,92.70
2023-01-18T02:55:00.326Z,92.70
2023-01-18T02:57:29.153Z,92.68
2023-01-18T03:00:00.257Z,92.66
2023-01-18T03:02:28.468Z,92.64
2023-01-18T03:04:56.646Z,92.66
2023-01-18T03:07:29.227Z,92.70
2023-01-18T03:10:00.112Z,92.74
2023-01-18T03:12:47.526Z,92.77
2023-01-18T03:15:21.238Z,92.80
2023-01-18T03:17:57.359Z,92.80
2023-01-18T03:20:32.697Z,92.79
2023-01-18T03:23:31.966Z,92.79
2023-01-18T03:26:03.676Z,92.73
2023-01-18T03:29:13.811Z,92.75
2023-01-18T03:32:31.633Z,92.76
2023-01-18T03:35:09.532Z,92.75
2023-01-18T03:37:42.116Z,92.69
2023-01-18T03:40:23.678Z,92.64
2023-01-18T03:42:51.522Z,92.52
2023-01-18T03:45:38.159Z,92.38
2023-01-18T03:48:08.304Z,92.34
2023-01-18T03:50:42.030Z,92.31
2023-01-18T03:53:15.091Z,92.27
2023-01-18T03:55:56.640Z,92.23
2023-01-18T03:58:36.206Z,92.13
2023-01-18T04:05:12.346Z,92.03
2023-01-18T04:07:41.380Z,91.99
2023-01-18T04:10:10.747Z,91.96
2023-01-18T04:12:38.631Z,91.94
2023-01-18T04:15:07.037Z,91.87
2023-01-18T04:17:35.067Z,91.87
2023-01-18T04:20:08.770Z,91.86
2023-01-18T04:22:36.670Z,91.86
2023-01-18T04:25:04.729Z,91.85
2023-01-18T04:27:32.537Z,91.82
2023-01-18T04:30:00.524Z,91.80
2023-01-18T04:34:37.390Z,91.78
2023-01-18T04:37:05.358Z,91.74
2023-01-18T04:39:33.246Z,91.78
2023-01-18T04:42:01.215Z,91.80
2023-01-18T04:44:29.083Z,91.83
2023-01-18T04:46:56.973Z,91.88
2023-01-18T04:49:25.516Z,91.91
2023-01-18T04:51:53.625Z,91.91
2023-01-18T04:54:21.573Z,91.91
2023-01-18T04:56:49.599Z,91.93
2023-01-18T04:59:17.676Z,91.95
2023-01-18T05:01:45.666Z,91.97
2023-01-18T05:04:13.686Z,91.95
2023-01-18T05:06:41.899Z,91.94
2023-01-18T05:09:12.457Z,91.94
2023-01-18T05:11:41.676Z,91.93
2023-01-18T05:14:10.246Z,91.94
2023-01-18T05:16:38.204Z,91.93
2023-01-18T05:19:06.129Z,91.93
2023-01-18T05:21:34.091Z,91.91
2023-01-18T05:24:01.996Z,91.88
2023-01-18T05:26:30.103Z,91.84
2023-01-18T05:28:58.498Z,91.86
2023-01-18T05:31:26.540Z,91.85
2023-01-18T05:33:56.670Z,91.83
2023-01-18T05:36:24.696Z,91.81
2023-01-18T05:38:52.575Z,91.80
2023-01-18T05:41:21.306Z,91.77
2023-01-18T05:43:49.442Z,91.75
2023-01-18T05:46:17.414Z,91.74
2023-01-18T05:48:45.423Z,91.72
2023-01-18T05:51:14.267Z,91.70
2023-01-18T05:53:42.350Z,91.68
2023-01-18T05:56:10.580Z,91.64
2023-01-18T05:58:39.012Z,91.61
2023-01-18T06:01:09.868Z,91.60
2023-01-18T06:03:38.916Z,91.54
2023-01-18T06:06:07.288Z,91.51
2023-01-18T06:08:35.297Z,91.49
2023-01-18T06:11:04.528Z,91.46
2023-01-18T06:13:33.013Z,91.43
2023-01-18T06:16:01.790Z,91.38
2023-01-18T06:18:33.017Z,91.37
2023-01-18T06:21:02.429Z,91.31
2023-01-18T06:23:31.211Z,91.28
2023-01-18T06:25:59.432Z,91.23
2023-01-18T06:28:30.286Z,91.17
2023-01-18T06:30:59.152Z,91.14
2023-01-18T06:33:27.402Z,91.12
2023-01-18T06:35:55.527Z,91.15
2023-01-18T06:38:23.506Z,91.15
2023-01-18T06:40:51.389Z,91.20
2023-01-18T06:43:19.702Z,91.21
2023-01-18T06:45:57.831Z,91.21
2023-01-18T06:48:26.673Z,91.23
2023-01-18T06:50:58.334Z,91.24
2023-01-18T06:53:26.770Z,91.24
2023-01-18T06:56:00.161Z,91.25
2023-01-18T06:58:29.024Z,91.26
2023-01-18T07:00:58.684Z,91.26
2023-01-18T07:03:28.589Z,91.26
2023-01-18T07:06:21.257Z,91.21
2023-01-18T07:08:49.735Z,91.19
2023-01-18T07:11:18.842Z,91.19
2023-01-18T07:13:46.744Z,91.15
2023-01-18T07:16:18.101Z,91.12
2023-01-18T07:18:47.723Z,91.11
2023-01-18T07:21:17.851Z,91.11
2023-01-18T07:23:46.385Z,91.11
2023-01-18T07:26:16.708Z,91.07
2023-01-18T07:28:52.422Z,91.04
2023-01-18T07:31:30.186Z,91.01
2023-01-18T07:33:58.620Z,91.00
2023-01-18T07:36:26.508Z,90.94
2023-01-18T07:38:54.398Z,90.93
2023-01-18T07:41:23.268Z,90.90
2023-01-18T07:43:54.006Z,90.88
2023-01-18T07:46:22.220Z,90.88
2023-01-18T07:48:50.221Z,90.87
2023-01-18T07:51:19.425Z,90.88
2023-01-18T07:53:47.496Z,90.85
2023-01-18T07:56:17.600Z,90.82
2023-01-18T07:58:45.876Z,90.81
2023-01-18T08:01:17.009Z,90.79
2023-01-18T08:03:48.026Z,90.79
2023-01-18T08:06:20.597Z,90.80
2023-01-18T08:08:48.684Z,90.83
2023-01-18T08:11:16.558Z,90.87
2023-01-18T08:13:44.437Z,90.86
2023-01-18T08:16:12.899Z,90.88
2023-01-18T08:18:41.770Z,90.92
2023-01-18T08:21:11.677Z,90.94
2023-01-18T08:23:39.937Z,90.94
2023-01-18T08:26:09.020Z,90.97
2023-01-18T08:28:37.206Z,90.99
2023-01-18T08:31:17.761Z,91.02
2023-01-18T08:33:47.702Z,91.06
2023-01-18T08:36:19.026Z,91.05
2023-01-18T08:38:51.704Z,91.10
2023-01-18T08:41:20.905Z,91.16
2023-01-18T08:43:51.144Z,91.18
2023-01-18T08:46:19.548Z,91.18
2023-01-18T08:48:52.356Z,91.23
2023-01-18T08:51:23.108Z,91.26
2023-01-18T08:53:56.565Z,91.31
2023-01-18T08:56:25.086Z,91.34
2023-01-18T08:58:53.063Z,91.32
2023-01-18T09:01:23.735Z,91.33
2023-01-18T09:03:56.315Z,91.33
2023-01-18T09:06:25.183Z,91.35
2023-01-18T09:08:53.408Z,91.36
2023-01-18T09:11:21.254Z,91.37
2023-01-18T09:14:00.682Z,91.35
2023-01-18T09:16:31.028Z,91.35
2023-01-18T09:18:59.873Z,91.34
2023-01-18T09:21:28.854Z,91.33
2023-01-18T09:23:57.930Z,91.31
2023-01-18T09:26:27.917Z,91.33
2023-01-18T09:28:56.075Z,91.36
2023-01-18T09:31:26.981Z,91.37
2023-01-18T09:34:06.210Z,91.36
2023-01-18T09:36:45.723Z,91.37
2023-01-18T09:39:13.728Z,91.40
2023-01-18T09:41:44.771Z,91.45
2023-01-18T09:44:33.916Z,91.43
2023-01-18T09:47:04.848Z,91.46
2023-01-18T09:49:56.704Z,91.45
2023-01-18T09:53:01.752Z,91.49
2023-01-18T09:55:48.396Z,91.47
2023-01-18T09:58:44.209Z,91.46
2023-01-18T10:01:17.171Z,91.51
2023-01-18T10:04:04.174Z,91.49
2023-01-18T10:06:44.412Z,91.49
2023-01-18T10:09:18.117Z,91.51
2023-01-18T10:12:05.199Z,91.53
2023-01-18T10:14:42.257Z,91.51
2023-01-18T10:17:23.105Z,91.51
2023-01-18T10:19:51.730Z,91.50
2023-01-18T10:22:28.139Z,91.55
2023-01-18T10:25:05.504Z,91.55
2023-01-18T10:27:56.260Z,91.57
2023-01-18T10:30:55.886Z,91.58
2023-01-18T10:33:27.728Z,91.60
2023-01-18T10:36:00.756Z,91.60
2023-01-18T10:38:30.309Z,91.62
2023-01-18T10:41:02.680Z,91.63
2023-01-18T10:43:31.967Z,91.60
2023-01-18T10:46:19.541Z,91.62
2023-01-18T10:48:52.878Z,91.63
2023-01-18T10:51:32.726Z,91.62
2023-01-18T10:54:22.212Z,91.67
2023-01-18T10:57:01.869Z,91.68
2023-01-18T10:59:39.841Z,91.72
2023-01-18T11:04:35.601Z,91.79
2023-01-18T11:07:05.214Z,91.77
2023-01-18T11:09:48.642Z,91.84
2023-01-18T11:12:34.601Z,91.88
2023-01-18T11:15:14.537Z,91.86
2023-01-18T11:18:00.408Z,91.84
2023-01-18T11:20:48.738Z,91.89
2023-01-18T11:23:21.109Z,91.96
2023-01-18T11:25:51.624Z,92.01
2023-01-18T11:28:23.391Z,92.03
2023-01-18T11:31:21.117Z,92.07
2023-01-18T11:33:56.823Z,92.10
2023-01-18T11:36:44.273Z,92.12
2023-01-18T11:39:33.112Z,92.15
2023-01-18T11:42:27.495Z,92.18
2023-01-18T11:45:04.773Z,92.20
2023-01-18T11:47:49.576Z,92.20
2023-01-18T11:50:29.802Z,92.20
2023-01-18T11:53:07.357Z,92.18
2023-01-18T11:55:41.748Z,92.15
2023-01-18T11:58:25.584Z,92.14
2023-01-18T12:01:22.074Z,92.16
2023-01-18T12:04:06.418Z,92.17
2023-01-18T12:07:03.893Z,92.12
2023-01-18T12:09:50.294Z,92.07
2023-01-18T12:12:33.267Z,92.05
2023-01-18T12:15:19.095Z,92.02
2023-01-18T12:18:12.460Z,91.99
2023-01-18T12:20:44.146Z,91.96
2023-01-18T12:23:33.752Z,91.94
2023-01-18T12:26:26.158Z,91.91
2023-01-18T12:29:13.202Z,91.89
2023-01-18T12:32:03.352Z,91.89
2023-01-18T12:34:40.533Z,91.86
2023-01-18T12:37:18.156Z,91.83
2023-01-18T12:40:38.513Z,91.79
2023-01-18T12:43:25.031Z,91.75
2023-01-18T12:46:04.491Z,91.74
2023-01-18T12:48:40.837Z,91.72
2023-01-18T12:51:18.505Z,91.68
2023-01-18T12:53:59.950Z,91.64
2023-01-18T12:56:45.448Z,91.61
2023-01-18T12:59:24.253Z,91.62
2023-01-18T13:01:57.528Z,91.63
2023-01-18T13:04:32.577Z,91.61
2023-01-18T13:07:07.321Z,91.57
2023-01-18T13:09:40.515Z,91.53
2023-01-18T13:12:09.527Z,91.46
2023-01-18T13:15:09.307Z,91.38
2023-01-18T13:18:08.260Z,91.35
2023-01-18T13:20:59.123Z,91.32
2023-01-18T13:23:32.287Z,91.27
2023-01-18T13:26:21.743Z,91.25
2023-01-18T13:29:06.496Z,91.22
2023-01-18T13:31:34.611Z,91.20
2023-01-18T13:34:03.626Z,91.17
2023-01-18T13:36:45.833Z,91.15
2023-01-18T13:39:16.756Z,91.12
2023-01-18T13:42:03.495Z,91.07
2023-01-18T13:44:47.723Z,91.05
2023-01-18T13:47:45.932Z,91.06
2023-01-18T13:50:28.923Z,91.06
2023-01-18T13:53:15.301Z,91.04
2023-01-18T13:55:55.008Z,91.02
2023-01-18T13:58:31.097Z,90.99
2023-01-18T14:01:03.434Z,90.97
2023-01-18T14:03:45.053Z,90.95
2023-01-18T14:06:19.665Z,90.96
2023-01-18T14:08:55.462Z,90.98
2023-01-18T14:11:27.875Z,90.99
2023-01-18T14:13:55.938Z,91.01
2023-01-18T14:16:27.769Z,91.02
2023-01-18T14:19:11.949Z,91.01
2023-01-18T14:21:58.494Z,91.01
2023-01-18T14:24:29.063Z,91.05
2023-01-18T14:26:59.234Z,91.07
2023-01-18T14:29:42.758Z,91.10
2023-01-18T14:32:22.863Z,91.10
2023-01-18T14:34:59.319Z,91.12
2023-01-18T14:37:30.068Z,91.17
2023-01-18T14:40:14.195Z,91.21
2023-01-18T14:42:47.570Z,91.24
2023-01-18T14:45:29.417Z,91.26
2023-01-18T14:48:02.190Z,91.28
2023-01-18T14:50:36.279Z,91.30
2023-01-18T14:53:06.640Z,91.33
2023-01-18T14:55:35.316Z,91.37
2023-01-18T14:58:15.700Z,91.41
2023-01-18T15:00:43.720Z,91.48
2023-01-18T15:03:24.179Z,91.55
2023-01-18T15:06:17.606Z,91.62
2023-01-18T15:08:47.231Z,91.68
2023-01-18T15:11:15.300Z,91.74
2023-01-18T15:13:50.393Z,91.79
2023-01-18T15:16:21.797Z,91.81
2023-01-18T15:18:52.106Z,91.86
2023-01-18T15:21:24.727Z,91.93
2023-01-18T15:24:06.517Z,92.00
2023-01-18T15:27:01.245Z,92.06
2023-01-18T15:29:36.111Z,92.10
2023-01-18T15:32:14.118Z,92.16
2023-01-18T15:34:48.462Z,92.15
2023-01-18T15:37:22.115Z,92.16
2023-01-18T15:39:56.827Z,92.17
2023-01-18T15:42:46.286Z,92.23
2023-01-18T15:45:20.685Z,92.28
2023-01-18T15:47:53.862Z,92.31
2023-01-18T15:50:24.784Z,92.34
2023-01-18T15:53:09.871Z,92.38
2023-01-18T15:55:45.670Z,92.42
2023-01-18T15:58:30.242Z,92.44
2023-01-18T16:01:04.921Z,92.46
2023-01-18T16:03:53.508Z,92.48
2023-01-18T16:06:21.483Z,92.51
2023-01-18T16:09:17.067Z,92.54
2023-01-18T16:11:57.077Z,92.57
2023-01-18T16:14:32.469Z,92.56
2023-01-18T16:17:27.627Z,92.56
2023-01-18T16:19:57.693Z,92.57
2023-01-18T16:22:28.831Z,92.55
2023-01-18T16:25:04.453Z,92.55
2023-01-18T16:27:54.016Z,92.55
2023-01-18T16:30:24.108Z,92.54
2023-01-18T16:32:52.080Z,92.55
2023-01-18T16:35:22.006Z,92.55
2023-01-18T16:37:52.104Z,92.56
2023-01-18T16:40:23.237Z,92.58
2023-01-18T16:43:01.303Z,92.61
2023-01-18T16:45:33.600Z,92.61
2023-01-18T16:48:02.347Z,92.63
2023-01-18T16:50:30.643Z,92.66
2023-01-18T16:52:58.652Z,92.69
2023-01-18T16:55:27.245Z,92.73
2023-01-18T16:57:55.279Z,92.76
2023-01-18T17:00:25.956Z,92.77
2023-01-18T17:02:53.826Z,92.78
2023-01-18T17:05:22.261Z,92.79
2023-01-18T17:07:52.667Z,92.81
2023-01-18T17:10:20.815Z,92.82
2023-01-18T17:12:49.088Z,92.81
2023-01-18T17:15:20.029Z,92.83
2023-01-18T17:17:48.343Z,92.86
2023-01-18T17:20:19.615Z,92.88
2023-01-18T17:22:47.617Z,92.90
2023-01-18T17:25:15.743Z,92.92
2023-01-18T17:27:44.505Z,92.93
2023-01-18T17:30:15.541Z,92.92
2023-01-18T17:32:43.514Z,92.93
2023-01-18T17:35:11.439Z,92.95
2023-01-18T17:40:17.768Z,92.96
2023-01-18T17:42:51.851Z,92.96
2023-01-18T17:45:19.713Z,92.98
2023-01-18T17:47:47.683Z,93.00
2023-01-18T17:50:22.902Z,93.01
2023-01-18T17:52:52.085Z,93.03
2023-01-18T17:55:24.485Z,93.04
2023-01-18T17:57:56.272Z,93.04
2023-01-18T18:00:24.325Z,93.03
2023-01-18T18:02:53.635Z,93.00
2023-01-18T18:05:21.567Z,93.00
2023-01-18T18:07:49.712Z,93.02
2023-01-18T18:10:17.982Z,93.04
2023-01-18T18:12:46.160Z,93.05
2023-01-18T18:15:14.024Z,93.04
2023-01-18T18:17:41.924Z,93.06
2023-01-18T18:20:10.847Z,93.08
2023-01-18T18:22:38.806Z,93.10
2023-01-18T18:25:07.511Z,93.11
2023-01-18T18:27:45.416Z,93.11
2023-01-18T18:30:15.334Z,93.11
2023-01-18T18:32:43.267Z,93.12
2023-01-18T18:35:24.528Z,93.14
2023-01-18T18:37:54.712Z,93.14
2023-01-18T18:40:24.054Z,93.15
2023-01-18T18:43:07.890Z,93.14
2023-01-18T18:45:35.991Z,93.14
2023-01-18T18:48:04.578Z,93.15
2023-01-18T18:50:32.524Z,93.16
2023-01-18T18:53:00.896Z,93.15
2023-01-18T18:55:29.067Z,93.12
2023-01-18T18:57:57.066Z,93.11
2023-01-18T19:04:53.660Z,93.10
2023-01-18T19:07:20.309Z,93.05
2023-01-18T19:09:46.956Z,93.04
2023-01-18T19:12:13.441Z,93.04
2023-01-18T19:14:40.069Z,93.06
2023-01-18T19:17:07.304Z,93.06
2023-01-18T19:19:33.932Z,93.07
2023-01-18T19:22:00.577Z,93.06
2023-01-18T19:24:31.202Z,93.07
2023-01-18T19:26:57.944Z,93.06
2023-01-18T19:29:24.394Z,93.05
2023-01-18T19:31:52.052Z,93.05
2023-01-18T19:34:20.542Z,93.06
2023-01-18T19:36:47.882Z,93.03
2023-01-18T19:39:22.379Z,93.03
2023-01-18T19:41:49.384Z,93.03
2023-01-18T19:44:16.461Z,93.04
2023-01-18T19:46:43.285Z,93.06
2023-01-18T19:49:09.830Z,93.06
2023-01-18T19:51:40.403Z,93.08
2023-01-18T19:54:09.361Z,93.08
2023-01-18T19:56:35.983Z,93.09
2023-01-18T19:59:03.088Z,93.09
2023-01-18T20:01:36.374Z,93.08
2023-01-18T20:04:05.239Z,93.08
2023-01-18T20:06:33.434Z,93.08
2023-01-18T20:09:00.100Z,93.10
2023-01-18T20:11:26.783Z,93.10
2023-01-18T20:13:53.846Z,93.09
2023-01-18T20:16:21.144Z,93.10
2023-01-18T20:18:48.851Z,93.10
2023-01-18T20:21:17.724Z,93.10
2023-01-18T20:23:44.891Z,93.09
2023-01-18T20:26:13.011Z,93.08
2023-01-18T20:28:40.592Z,93.08
2023-01-18T20:31:09.466Z,93.09
2023-01-18T20:33:37.434Z,93.10
2023-01-18T20:36:05.864Z,93.10
2023-01-18T20:38:33.146Z,93.09
2023-01-18T20:41:00.495Z,93.08
2023-01-18T20:43:27.062Z,93.08
2023-01-18T20:46:06.714Z,93.08
2023-01-18T20:48:37.457Z,93.08
2023-01-18T20:51:06.741Z,93.07
2023-01-18T20:53:33.948Z,93.06
2023-01-18T20:56:01.894Z,93.06
2023-01-18T20:58:29.064Z,93.07
2023-01-18T21:00:55.774Z,93.06
2023-01-18T21:03:22.862Z,93.06
2023-01-18T21:05:49.440Z,93.05
2023-01-18T21:08:16.755Z,93.05
2023-01-18T21:10:43.343Z,93.05
2023-01-18T21:13:10.819Z,93.05
2023-01-18T21:15:38.482Z,93.07
2023-01-18T21:18:06.553Z,93.06
2023-01-18T21:20:33.550Z,93.06
2023-01-18T21:23:00.950Z,93.05
2023-01-18T21:25:28.546Z,93.04
2023-01-18T21:27:57.485Z,93.04
2023-01-18T21:30:24.503Z,93.03
2023-01-18T21:32:51.204Z,93.03
2023-01-18T21:35:18.361Z,93.02
2023-01-18T21:37:45.116Z,93.01
2023-01-18T21:40:11.866Z,92.99
2023-01-18T21:42:57.187Z,92.99
2023-01-18T21:45:42.048Z,92.98
2023-01-18T21:48:08.709Z,92.98
2023-01-18T21:50:57.138Z,92.97
2023-01-18T21:53:42.300Z,92.96
2023-01-18T21:56:09.282Z,92.96
2023-01-18T21:58:54.062Z,92.95
2023-01-18T22:01:33.817Z,92.95
2023-01-18T22:04:21.224Z,92.95
2023-01-18T22:06:48.120Z,92.94
2023-01-18T22:09:15.693Z,92.95
2023-01-18T22:11:43.788Z,92.95
2023-01-18T22:14:10.901Z,92.95
2023-01-18T22:16:37.839Z,92.93
2023-01-18T22:19:04.440Z,92.93
2023-01-18T22:21:31.873Z,92.92
2023-01-18T22:23:58.754Z,92.92
2023-01-18T22:26:27.637Z,92.90
2023-01-18T22:28:54.501Z,92.91
2023-01-18T22:31:21.098Z,92.89
2023-01-18T22:33:48.314Z,92.88
2023-01-18T22:36:15.624Z,92.86
2023-01-18T22:38:43.292Z,92.85
2023-01-18T22:41:12.411Z,92.86
2023-01-18T22:43:39.681Z,92.86
2023-01-18T22:46:08.262Z,92.85
2023-01-18T22:48:36.799Z,92.85
2023-01-18T22:51:04.762Z,92.84
2023-01-18T22:53:33.018Z,92.83
2023-01-18T22:56:05.603Z,92.83
2023-01-18T22:58:32.421Z,92.83
2023-01-18T23:00:59.151Z,92.83
2023-01-18T23:03:26.266Z,92.82
2023-01-18T23:05:58.038Z,92.81
2023-01-18T23:08:43.175Z,92.79
2023-01-18T23:11:19.227Z,92.78
2023-01-18T23:14:08.517Z,92.76
2023-01-18T23:16:54.744Z,92.74
2023-01-18T23:19:23.407Z,92.73
2023-01-18T23:21:50.567Z,92.72
2023-01-18T23:24:17.584Z,92.71
2023-01-18T23:26:44.280Z,92.70
2023-01-18T23:29:10.917Z,92.70
2023-01-18T23:31:37.626Z,92.69
2023-01-18T23:34:04.168Z,92.69
2023-01-18T23:36:30.774Z,92.69
2023-01-18T23:39:16.144Z,92.70
2023-01-18T23:42:01.244Z,92.70
2023-01-18T23:44:46.282Z,92.71
2023-01-18T23:47:31.391Z,92.73
2023-01-18T23:50:16.436Z,92.73
2023-01-18T23:53:01.800Z,92.73
2023-01-18T23:55:28.281Z,92.74
2023-01-18T23:57:54.798Z,92.75
